createdAt,value
2018-09-10T00:01:46.984Z,67.50
2018-09-10T00:06:49.162Z,67.70
2018-09-10T00:11:54.095Z,68.60
2018-09-10T00:16:59.500Z,68.70
2018-09-10T00:22:02.087Z,69.20
2018-09-10T00:27:04.254Z,69.20
2018-09-10T00:32:07.486Z,72.10
2018-09-10T00:37:09.752Z,73.20
2018-09-10T00:42:12.055Z,72.70
2018-09-10T00:47:14.245Z,73.70
2018-09-10T00:52:16.457Z,73.60
2018-09-10T00:57:18.642Z,75.20
2018-09-10T01:02:20.845Z,76.30
2018-09-10T01:07:23.043Z,76.60
2018-09-10T01:12:25.768Z,76.00
2018-09-10T01:17:28.222Z,75.50
2018-09-10T01:22:30.460Z,77.00
2018-09-10T01:27:32.814Z,77.80
2018-09-10T01:32:35.720Z,77.60
2018-09-10T01:37:38.030Z,77.10
2018-09-10T01:42:40.220Z,77.80
2018-09-10T01:47:42.425Z,77.10
2018-09-10T01:52:44.649Z,77.50
2018-09-10T01:57:46.841Z,78.90
2018-09-10T02:02:48.988Z,79.20
2018-09-10T02:07:51.210Z,77.90
2018-09-10T02:12:53.384Z,77.70
2018-09-10T02:17:55.572Z,78.30
2018-09-10T02:22:57.753Z,79.30
2018-09-10T02:27:59.943Z,78.90
2018-09-10T02:33:02.894Z,79.20
2018-09-10T02:38:05.386Z,79.20
2018-09-10T02:43:07.609Z,79.00
2018-09-10T02:48:09.778Z,79.50
2018-09-10T02:53:11.957Z,79.40
2018-09-10T02:58:14.761Z,79.50
2018-09-10T03:03:16.998Z,80.10
2018-09-10T03:08:19.229Z,79.70
2018-09-10T03:13:21.458Z,79.80
2018-09-10T03:18:23.689Z,81.00
2018-09-10T03:23:25.891Z,82.80
2018-09-10T03:28:28.062Z,83.00
2018-09-10T03:33:30.314Z,81.80
2018-09-10T03:38:32.429Z,81.90
2018-09-10T03:43:34.901Z,82.40
2018-09-10T03:48:38.556Z,83.80
2018-09-10T03:53:40.838Z,83.00
2018-09-10T03:58:43.054Z,83.10
2018-09-10T04:03:45.242Z,83.40
2018-09-10T04:08:47.442Z,83.90
2018-09-10T04:13:49.617Z,84.90
2018-09-10T04:18:52.017Z,86.30
2018-09-10T04:23:54.265Z,85.70
2018-09-10T04:28:56.526Z,86.50
2018-09-10T04:33:58.754Z,89.00
2018-09-10T04:39:01.021Z,89.20
2018-09-10T04:44:03.338Z,89.40
2018-09-10T04:49:06.662Z,89.10
2018-09-10T04:54:08.959Z,89.30
2018-09-10T04:59:11.395Z,90.20
2018-09-10T05:04:13.582Z,90.40
2018-09-10T05:09:15.749Z,90.00
2018-09-10T05:14:17.973Z,88.40
2018-09-10T05:19:20.150Z,88.70
2018-09-10T05:24:22.727Z,89.50
2018-09-10T05:29:24.958Z,90.00
2018-09-10T05:34:27.125Z,87.20
2018-09-10T05:39:29.563Z,84.90
2018-09-10T05:44:31.726Z,83.60
2018-09-10T05:49:33.920Z,83.60
2018-09-10T05:54:36.070Z,84.40
2018-09-10T05:59:38.330Z,79.80
2018-09-10T06:04:40.545Z,79.30
2018-09-10T06:09:42.749Z,78.40
2018-09-10T06:14:45.081Z,76.40
2018-09-10T06:19:47.568Z,74.20
2018-09-10T06:24:49.838Z,72.10
2018-09-10T06:29:52.015Z,69.40
2018-09-10T06:34:54.191Z,68.70
2018-09-10T06:39:57.062Z,70.30
2018-09-10T06:44:59.229Z,69.20
2018-09-10T06:50:01.825Z,67.40
2018-09-10T06:55:04.593Z,63.90
2018-09-10T07:00:07.324Z,60.90
2018-09-10T07:05:09.543Z,59.30
2018-09-10T07:10:11.706Z,58.80
2018-09-10T07:15:13.925Z,56.40
2018-09-10T07:20:16.166Z,56.10
2018-09-10T07:25:18.348Z,56.40
2018-09-10T07:30:20.609Z,55.20
2018-09-10T07:35:22.792Z,54.10
2018-09-10T07:40:24.984Z,52.60
2018-09-10T07:45:27.145Z,51.60
2018-09-10T07:50:29.322Z,50.80
2018-09-10T07:55:31.519Z,51.30
2018-09-10T08:00:33.698Z,49.00
2018-09-10T08:05:36.610Z,47.80
2018-09-10T08:10:38.847Z,45.70
2018-09-10T08:15:41.125Z,45.30
2018-09-10T08:20:43.313Z,43.30
2018-09-10T08:25:45.473Z,42.90
2018-09-10T08:30:47.647Z,41.70
2018-09-10T08:35:49.831Z,42.10
2018-09-10T08:40:52.373Z,42.90
2018-09-10T08:45:54.557Z,43.70
2018-09-10T08:50:56.741Z,44.60
2018-09-10T08:55:59.153Z,45.40
2018-09-10T09:01:01.158Z,45.80
2018-09-10T09:06:03.421Z,45.00
2018-09-10T09:11:05.603Z,44.70
2018-09-10T09:16:07.767Z,45.50
2018-09-10T09:21:10.326Z,46.40
2018-09-10T09:26:12.508Z,47.20
2018-09-10T09:31:14.680Z,46.70
2018-09-10T09:36:22.609Z,47.00
2018-09-10T09:41:30.517Z,46.20
2018-09-10T09:46:32.689Z,45.80
2018-09-10T09:51:34.846Z,44.20
2018-09-10T09:56:37.039Z,44.00
2018-09-10T10:01:44.568Z,45.00
2018-09-10T10:06:46.963Z,44.40
2018-09-10T10:11:49.232Z,44.20
2018-09-10T10:16:51.299Z,43.50
2018-09-10T10:21:53.465Z,42.30
2018-09-10T10:26:55.605Z,42.10
2018-09-10T10:31:57.781Z,43.30
2018-09-10T10:36:59.965Z,43.30
2018-09-10T10:42:02.179Z,42.50
2018-09-10T10:47:04.594Z,42.70
2018-09-10T10:52:06.806Z,42.90
2018-09-10T10:57:08.964Z,43.30
2018-09-10T11:02:11.149Z,43.00
2018-09-10T11:07:13.311Z,42.30
2018-09-10T11:12:15.461Z,41.80
2018-09-10T11:17:17.630Z,42.00
2018-09-10T11:22:19.871Z,41.70
2018-09-10T11:27:22.013Z,40.70
2018-09-10T11:32:24.205Z,40.10
2018-09-10T11:37:26.365Z,40.00
2018-09-10T11:42:28.526Z,39.60
2018-09-10T11:47:30.690Z,39.20
2018-09-10T11:52:32.845Z,38.40
2018-09-10T11:57:35.018Z,37.50
2018-09-10T12:02:37.181Z,36.90
2018-09-10T12:07:39.365Z,36.60
2018-09-10T12:12:41.562Z,36.10
2018-09-10T12:17:43.731Z,36.50
2018-09-10T12:22:45.902Z,35.70
2018-09-10T12:27:48.106Z,35.30
2018-09-10T12:32:50.270Z,35.30
2018-09-10T12:37:53.089Z,34.30
2018-09-10T12:42:55.346Z,35.00
2018-09-10T12:47:57.634Z,33.00
2018-09-10T12:52:59.856Z,32.80
2018-09-10T12:58:02.082Z,31.50
2018-09-10T13:03:04.327Z,31.00
2018-09-10T13:08:06.565Z,31.40
2018-09-10T13:13:08.725Z,31.00
2018-09-10T13:18:10.905Z,30.90
2018-09-10T13:23:13.070Z,28.80
2018-09-10T13:28:15.222Z,28.00
2018-09-10T13:33:17.521Z,27.50
2018-09-10T13:38:19.841Z,29.20
2018-09-10T13:43:22.058Z,29.00
2018-09-10T13:48:24.222Z,28.90
2018-09-10T13:53:26.751Z,28.60
2018-09-10T13:58:28.901Z,28.40
2018-09-10T14:03:31.441Z,29.30
2018-09-10T14:08:33.625Z,29.90
2018-09-10T14:13:35.797Z,28.60
2018-09-10T14:18:37.992Z,28.30
2018-09-10T14:23:40.202Z,28.70
2018-09-10T14:28:42.366Z,27.90
2018-09-10T14:33:44.837Z,28.50
2018-09-10T14:38:46.990Z,28.70
2018-09-10T14:43:49.177Z,28.10
2018-09-10T14:48:51.342Z,26.40
2018-09-10T14:53:53.753Z,27.30
2018-09-10T14:58:56.069Z,27.50
2018-09-10T15:03:58.231Z,27.50
2018-09-10T15:09:00.404Z,27.50
2018-09-10T15:14:02.587Z,27.60
2018-09-10T15:19:04.967Z,28.30
2018-09-10T15:24:07.021Z,28.60
2018-09-10T15:29:09.695Z,29.90
2018-09-10T15:34:11.942Z,29.10
2018-09-10T15:39:14.086Z,29.50
2018-09-10T15:44:16.257Z,29.80
2018-09-10T15:49:18.417Z,30.30
2018-09-10T15:54:20.563Z,30.50
2018-09-10T15:59:22.782Z,31.40
2018-09-10T16:04:24.945Z,31.70
2018-09-10T16:09:27.101Z,31.90
2018-09-10T16:14:29.297Z,32.50
2018-09-10T16:19:31.468Z,32.50
2018-09-10T16:24:43.218Z,32.90
2018-09-10T16:29:45.779Z,32.60
2018-09-10T16:34:48.200Z,32.80
2018-09-10T16:39:50.622Z,33.30
2018-09-10T16:44:52.832Z,33.30
2018-09-10T16:49:55.248Z,33.20
2018-09-10T16:54:57.638Z,33.60
2018-09-10T16:59:59.761Z,33.90
2018-09-10T17:05:02.932Z,34.00
2018-09-10T17:10:05.347Z,34.30
2018-09-10T17:15:07.558Z,34.50
2018-09-10T17:20:09.836Z,35.10
2018-09-10T17:25:12.009Z,35.10
2018-09-10T17:30:14.222Z,35.40
2018-09-10T17:35:16.396Z,35.80
2018-09-10T17:40:19.398Z,36.10
2018-09-10T17:45:21.554Z,36.70
2018-09-10T17:50:23.716Z,37.00
2018-09-10T17:55:25.900Z,37.20
2018-09-10T18:00:28.018Z,37.30
2018-09-10T18:05:30.454Z,37.60
2018-09-10T18:10:33.123Z,37.90
2018-09-10T18:15:35.361Z,38.10
2018-09-10T18:20:37.657Z,39.20
2018-09-10T18:25:39.681Z,38.90
2018-09-10T18:30:41.844Z,39.50
2018-09-10T18:35:44.030Z,39.50
2018-09-10T18:40:46.250Z,39.90
2018-09-10T18:45:48.414Z,40.20
2018-09-10T18:50:50.580Z,40.40
2018-09-10T19:01:02.024Z,41.50
2018-09-10T19:06:04.163Z,41.40
2018-09-10T19:11:06.351Z,42.00
2018-09-10T19:16:08.518Z,41.80
2018-09-10T19:21:10.725Z,42.60
2018-09-10T19:26:12.937Z,43.20
2018-09-10T19:31:15.101Z,44.80
2018-09-10T19:36:17.316Z,46.40
2018-09-10T19:41:19.601Z,46.60
2018-09-10T19:46:21.798Z,46.20
2018-09-10T19:51:23.994Z,46.20
2018-09-10T19:56:26.170Z,46.40
2018-09-10T20:01:28.350Z,46.50
2018-09-10T20:06:30.566Z,47.20
2018-09-10T20:11:33.093Z,47.80
2018-09-10T20:16:35.443Z,48.30
2018-09-10T20:21:37.669Z,48.80
2018-09-10T20:26:39.845Z,49.20
2018-09-10T20:31:41.982Z,51.30
2018-09-10T20:36:44.144Z,51.70
2018-09-10T20:41:46.306Z,52.10
2018-09-10T20:46:48.474Z,50.90
2018-09-10T20:51:50.681Z,50.40
2018-09-10T20:56:52.894Z,50.50
2018-09-10T21:01:55.313Z,50.50
2018-09-10T21:06:57.518Z,52.00
2018-09-10T21:11:59.742Z,51.30
2018-09-10T21:17:01.934Z,52.40
2018-09-10T21:22:04.157Z,54.40
2018-09-10T21:27:06.441Z,53.50
2018-09-10T21:32:08.634Z,55.90
2018-09-10T21:37:10.828Z,55.90
2018-09-10T21:42:13.246Z,55.60
2018-09-10T21:47:16.480Z,56.20
2018-09-10T21:52:19.729Z,56.60
2018-09-10T21:57:21.889Z,56.00
2018-09-10T22:02:24.114Z,56.80
2018-09-10T22:07:26.754Z,57.30
2018-09-10T22:12:29.122Z,57.80
2018-09-10T22:17:31.327Z,59.20
2018-09-10T22:22:34.317Z,59.50
2018-09-10T22:27:36.734Z,59.30
2018-09-10T22:32:38.926Z,59.60
2018-09-10T22:37:41.148Z,60.10
2018-09-10T22:42:43.366Z,60.70
2018-09-10T22:47:45.546Z,61.30
2018-09-10T22:52:48.304Z,61.50
2018-09-10T22:57:50.515Z,62.90
2018-09-10T23:02:53.493Z,63.10
2018-09-10T23:07:55.726Z,63.50
2018-09-10T23:12:57.912Z,63.70
2018-09-10T23:18:00.134Z,64.20
2018-09-10T23:23:02.317Z,65.10
2018-09-10T23:28:04.863Z,65.90
2018-09-10T23:33:07.853Z,66.00
2018-09-10T23:38:10.119Z,66.60
2018-09-10T23:43:18.371Z,66.70
2018-09-10T23:48:20.605Z,66.80
2018-09-10T23:53:22.814Z,69.10
2018-09-10T23:58:25.045Z,68.80
